createdAt,value
2018-06-16T00:00:53.863Z,4.90
2018-06-16T00:01:53.834Z,4.60
2018-06-16T00:02:53.806Z,4.80
2018-06-16T00:03:53.785Z,5.00
2018-06-16T00:04:53.762Z,5.10
2018-06-16T00:05:53.739Z,5.20
2018-06-16T00:06:53.749Z,5.00
2018-06-16T00:07:53.690Z,4.80
2018-06-16T00:08:53.665Z,4.60
2018-06-16T00:09:53.642Z,4.80
2018-06-16T00:10:53.617Z,5.20
2018-06-16T00:11:53.596Z,4.50
2018-06-16T00:12:53.570Z,4.80
2018-06-16T00:13:53.549Z,4.80
2018-06-16T00:14:53.523Z,4.80
2018-06-16T00:15:53.501Z,4.70
2018-06-16T00:16:53.481Z,4.80
2018-06-16T00:17:53.454Z,5.10
2018-06-16T00:18:53.431Z,5.00
2018-06-16T00:19:53.408Z,5.10
2018-06-16T00:20:53.382Z,5.20
2018-06-16T00:21:53.359Z,4.50
2018-06-16T00:22:53.334Z,5.20
2018-06-16T00:23:53.312Z,4.80
2018-06-16T00:24:53.290Z,5.00
2018-06-16T00:25:53.264Z,4.80
2018-06-16T00:26:53.241Z,4.90
2018-06-16T00:27:53.218Z,5.10
2018-06-16T00:28:53.197Z,5.20
2018-06-16T00:29:53.172Z,5.10
2018-06-16T00:30:53.145Z,5.20
2018-06-16T00:31:53.123Z,5.20
2018-06-16T00:32:53.099Z,4.80
2018-06-16T00:33:53.076Z,5.00
2018-06-16T00:34:53.083Z,5.10
2018-06-16T00:35:53.027Z,5.00
2018-06-16T00:36:53.007Z,5.30
2018-06-16T00:37:52.982Z,4.90
2018-06-16T00:38:52.957Z,5.50
2018-06-16T00:39:52.933Z,4.90
2018-06-16T00:40:52.914Z,5.20
2018-06-16T00:41:52.892Z,5.60
2018-06-16T00:42:52.861Z,5.60
2018-06-16T00:43:52.840Z,5.40
2018-06-16T00:44:52.818Z,5.20
2018-06-16T00:45:52.790Z,5.30
2018-06-16T00:46:52.768Z,5.20
2018-06-16T00:47:52.744Z,5.60
2018-06-16T00:48:52.723Z,5.30
2018-06-16T00:49:52.717Z,5.70
2018-06-16T00:50:52.672Z,5.70
2018-06-16T00:51:52.649Z,5.40
2018-06-16T00:52:52.658Z,5.50
2018-06-16T00:53:52.601Z,5.80
2018-06-16T00:54:52.577Z,5.70
2018-06-16T00:55:52.562Z,5.70
2018-06-16T00:56:52.538Z,5.70
2018-06-16T00:57:52.506Z,5.60
2018-06-16T00:58:52.482Z,5.90
2018-06-16T00:59:52.460Z,5.70
2018-06-16T01:00:52.436Z,5.90
2018-06-16T01:01:52.414Z,5.40
2018-06-16T01:02:52.397Z,6.10
2018-06-16T01:03:52.363Z,6.40
2018-06-16T01:04:52.340Z,5.90
2018-06-16T01:05:52.316Z,5.80
2018-06-16T01:06:52.293Z,5.90
2018-06-16T01:07:52.269Z,6.70
2018-06-16T01:08:52.248Z,6.80
2018-06-16T01:09:52.219Z,6.50
2018-06-16T01:10:52.197Z,6.50
2018-06-16T01:11:52.172Z,7.10
2018-06-16T01:12:52.151Z,7.30
2018-06-16T01:13:52.125Z,7.90
2018-06-16T01:14:52.101Z,8.40
2018-06-16T01:15:52.079Z,8.40
2018-06-16T01:16:52.056Z,8.70
2018-06-16T01:17:52.030Z,8.70
2018-06-16T01:18:52.008Z,8.90
2018-06-16T01:19:51.983Z,8.70
2018-06-16T01:20:51.964Z,8.60
2018-06-16T01:21:51.939Z,8.50
2018-06-16T01:22:51.909Z,8.60
2018-06-16T01:23:51.889Z,8.40
2018-06-16T01:24:51.863Z,7.70
2018-06-16T01:25:51.840Z,7.50
2018-06-16T01:26:51.817Z,7.50
2018-06-16T01:27:51.799Z,7.60
2018-06-16T01:28:51.769Z,7.40
2018-06-16T01:29:51.748Z,7.10
2018-06-16T01:30:51.725Z,7.60
2018-06-16T01:31:51.696Z,7.50
2018-06-16T01:32:51.673Z,7.30
2018-06-16T01:33:51.649Z,7.00
2018-06-16T01:34:51.624Z,6.60
2018-06-16T01:35:51.605Z,7.20
2018-06-16T01:36:51.579Z,7.00
2018-06-16T01:37:51.554Z,6.80
2018-06-16T01:38:51.528Z,6.90
2018-06-16T01:39:51.507Z,6.90
2018-06-16T01:40:51.482Z,7.50
2018-06-16T01:41:51.456Z,7.30
2018-06-16T01:42:51.438Z,7.60
2018-06-16T01:43:51.411Z,7.30
2018-06-16T01:44:51.386Z,7.50
2018-06-16T01:45:51.362Z,7.50
2018-06-16T01:46:51.338Z,7.40
2018-06-16T01:47:51.322Z,7.70
2018-06-16T01:48:51.290Z,7.80
2018-06-16T01:49:51.265Z,7.40
2018-06-16T01:50:51.243Z,7.30
2018-06-16T01:51:51.219Z,7.60
2018-06-16T01:52:51.195Z,7.20
2018-06-16T01:53:51.171Z,6.80
2018-06-16T01:54:51.145Z,7.50
2018-06-16T01:55:51.120Z,7.00
2018-06-16T01:56:51.103Z,7.40
2018-06-16T01:57:51.075Z,7.00
2018-06-16T01:58:51.049Z,7.00
2018-06-16T01:59:51.026Z,7.10
2018-06-16T02:00:51.004Z,7.10
2018-06-16T02:01:50.983Z,7.30
2018-06-16T02:02:50.955Z,7.50
2018-06-16T02:03:50.932Z,7.70
2018-06-16T02:04:50.909Z,7.10
2018-06-16T02:05:50.886Z,7.20
2018-06-16T02:06:50.859Z,7.10
2018-06-16T02:07:50.836Z,7.00
2018-06-16T02:08:50.813Z,7.40
2018-06-16T02:09:50.786Z,7.50
2018-06-16T02:10:50.766Z,6.90
2018-06-16T02:11:50.741Z,7.00
2018-06-16T02:12:50.720Z,6.90
2018-06-16T02:13:50.699Z,7.20
2018-06-16T02:14:50.666Z,7.00
2018-06-16T02:15:50.644Z,7.00
2018-06-16T02:16:50.620Z,6.90
2018-06-16T02:17:50.596Z,7.40
2018-06-16T02:18:50.574Z,7.10
2018-06-16T02:19:50.547Z,7.20
2018-06-16T02:20:50.524Z,7.20
2018-06-16T02:21:50.499Z,7.20
2018-06-16T02:22:50.477Z,7.00
2018-06-16T02:23:50.457Z,7.20
2018-06-16T02:24:50.428Z,7.20
2018-06-16T02:25:50.403Z,7.40
2018-06-16T02:26:50.383Z,7.30
2018-06-16T02:27:50.358Z,7.30
2018-06-16T02:28:50.334Z,6.90
2018-06-16T02:29:50.307Z,7.10
2018-06-16T02:30:50.286Z,6.60
2018-06-16T02:31:50.260Z,7.10
2018-06-16T02:32:50.260Z,7.40
2018-06-16T02:33:50.211Z,6.90
2018-06-16T02:34:50.187Z,6.90
2018-06-16T02:35:50.164Z,6.60
2018-06-16T02:36:50.140Z,6.90
2018-06-16T02:37:50.121Z,7.30
2018-06-16T02:38:50.093Z,7.10
2018-06-16T02:39:50.068Z,6.80
2018-06-16T02:40:50.044Z,6.90
2018-06-16T02:41:50.025Z,6.90
2018-06-16T02:42:49.999Z,6.90
2018-06-16T02:43:49.972Z,7.10
2018-06-16T02:44:49.948Z,6.80
2018-06-16T02:45:49.923Z,6.70
2018-06-16T02:46:49.901Z,6.70
2018-06-16T02:47:49.875Z,6.60
2018-06-16T02:48:49.850Z,6.60
2018-06-16T02:49:49.827Z,6.90
2018-06-16T02:50:49.806Z,6.20
2018-06-16T02:51:49.830Z,6.60
2018-06-16T02:52:49.761Z,6.40
2018-06-16T02:53:49.731Z,6.50
2018-06-16T02:54:49.708Z,6.40
2018-06-16T02:55:49.683Z,6.20
2018-06-16T02:56:49.660Z,6.20
2018-06-16T02:57:49.631Z,6.50
2018-06-16T02:58:49.605Z,6.50
2018-06-16T02:59:49.588Z,6.30
2018-06-16T03:00:49.610Z,6.50
2018-06-16T03:01:49.585Z,6.60
2018-06-16T03:02:49.509Z,6.60
2018-06-16T03:03:49.488Z,6.90
2018-06-16T03:04:49.463Z,6.10
2018-06-16T03:05:49.438Z,6.50
2018-06-16T03:06:49.469Z,6.60
2018-06-16T03:07:49.411Z,6.90
2018-06-16T03:08:49.372Z,6.60
2018-06-16T03:09:49.353Z,6.60
2018-06-16T03:10:49.318Z,6.40
2018-06-16T03:11:49.298Z,6.50
2018-06-16T03:12:49.264Z,6.90
2018-06-16T03:13:49.254Z,6.70
2018-06-16T03:14:49.225Z,6.90
2018-06-16T03:15:49.198Z,6.50
2018-06-16T03:16:49.179Z,6.50
2018-06-16T03:17:49.145Z,6.70
2018-06-16T03:18:49.137Z,7.20
2018-06-16T03:19:49.104Z,6.60
2018-06-16T03:20:49.078Z,6.80
2018-06-16T03:21:49.052Z,6.80
2018-06-16T03:22:49.025Z,6.50
2018-06-16T03:23:49.010Z,6.80
2018-06-16T03:24:48.976Z,7.00
2018-06-16T03:25:48.963Z,6.80
2018-06-16T03:26:48.968Z,6.80
2018-06-16T03:27:48.914Z,6.60
2018-06-16T03:28:48.883Z,6.60
2018-06-16T03:29:48.855Z,6.70
2018-06-16T03:30:48.837Z,6.60
2018-06-16T03:31:48.813Z,7.10
2018-06-16T03:32:48.789Z,6.90
2018-06-16T03:33:48.762Z,7.10
2018-06-16T03:34:48.755Z,6.70
2018-06-16T03:35:48.721Z,6.50
2018-06-16T03:36:48.697Z,6.60
2018-06-16T03:37:48.662Z,6.90
2018-06-16T03:38:48.646Z,6.90
2018-06-16T03:39:48.618Z,7.20
2018-06-16T03:40:48.620Z,6.90
2018-06-16T03:41:48.567Z,7.10
2018-06-16T03:42:48.549Z,6.80
2018-06-16T03:43:48.531Z,6.90
2018-06-16T03:44:48.505Z,6.70
2018-06-16T03:45:48.472Z,7.00
2018-06-16T03:46:48.453Z,7.20
2018-06-16T03:47:48.423Z,7.20
2018-06-16T03:48:48.400Z,7.10
2018-06-16T03:49:48.379Z,7.00
2018-06-16T03:50:48.355Z,7.20
2018-06-16T03:51:48.328Z,7.20
2018-06-16T03:52:48.302Z,7.70
2018-06-16T03:53:48.285Z,7.40
2018-06-16T03:54:48.302Z,7.20
2018-06-16T03:55:48.230Z,7.10
2018-06-16T03:56:48.207Z,7.60
2018-06-16T03:57:48.188Z,7.60
2018-06-16T03:58:48.163Z,7.50
2018-06-16T03:59:48.133Z,6.70
2018-06-16T04:00:48.112Z,7.00
2018-06-16T04:01:48.123Z,6.60
2018-06-16T04:02:48.064Z,7.50
2018-06-16T04:03:48.039Z,7.20
2018-06-16T04:04:48.012Z,7.30
2018-06-16T04:05:47.995Z,7.10
2018-06-16T04:06:47.972Z,7.50
2018-06-16T04:07:47.939Z,7.50
2018-06-16T04:08:47.916Z,7.40
2018-06-16T04:09:47.895Z,7.50
2018-06-16T04:10:47.873Z,7.50
2018-06-16T04:11:47.847Z,7.40
2018-06-16T04:12:47.819Z,7.70
2018-06-16T04:13:47.798Z,7.20
2018-06-16T04:14:47.775Z,7.10
2018-06-16T04:15:47.748Z,7.50
2018-06-16T04:16:47.726Z,7.40
2018-06-16T04:17:47.717Z,7.20
2018-06-16T04:18:47.681Z,6.90
2018-06-16T04:19:47.655Z,7.50
2018-06-16T04:20:47.634Z,6.90
2018-06-16T04:21:47.600Z,6.90
2018-06-16T04:22:47.581Z,7.20
2018-06-16T04:23:47.554Z,7.00
2018-06-16T04:24:47.534Z,6.90
2018-06-16T04:25:47.508Z,6.80
2018-06-16T04:26:47.486Z,6.90
2018-06-16T04:27:47.463Z,7.50
2018-06-16T04:28:47.479Z,7.20
2018-06-16T04:29:47.412Z,6.90
2018-06-16T04:30:47.388Z,7.30
2018-06-16T04:31:47.357Z,7.30
2018-06-16T04:32:47.343Z,6.90
2018-06-16T04:33:47.313Z,6.60
2018-06-16T04:34:47.320Z,6.90
2018-06-16T04:35:47.288Z,7.30
2018-06-16T04:36:47.244Z,7.40
2018-06-16T04:37:47.217Z,6.80
2018-06-16T04:38:47.198Z,6.70
2018-06-16T04:39:47.168Z,6.80
2018-06-16T04:40:47.154Z,6.60
2018-06-16T04:41:47.134Z,7.00
2018-06-16T04:42:47.095Z,6.50
2018-06-16T04:43:47.075Z,7.00
2018-06-16T04:44:47.049Z,6.80
2018-06-16T04:45:47.082Z,6.80
2018-06-16T04:46:47.001Z,7.30
2018-06-16T04:47:46.981Z,6.70
2018-06-16T04:48:47.001Z,6.80
2018-06-16T04:49:46.934Z,6.60
2018-06-16T04:50:46.910Z,6.60
2018-06-16T04:51:46.890Z,6.80
2018-06-16T04:52:46.856Z,6.70
2018-06-16T04:53:46.841Z,6.40
2018-06-16T04:54:46.811Z,6.60
2018-06-16T04:55:46.783Z,6.60
2018-06-16T04:56:46.756Z,6.70
2018-06-16T04:57:46.745Z,6.30
2018-06-16T04:58:46.714Z,6.70
2018-06-16T04:59:46.691Z,6.50
2018-06-16T05:00:46.677Z,6.70
2018-06-16T05:01:46.639Z,6.80
2018-06-16T05:02:46.621Z,6.80
2018-06-16T05:03:46.591Z,6.70
2018-06-16T05:04:46.575Z,6.90
2018-06-16T05:05:46.539Z,6.80
2018-06-16T05:06:46.522Z,6.60
2018-06-16T05:07:46.497Z,6.90
2018-06-16T05:08:46.468Z,6.80
2018-06-16T05:09:46.456Z,6.50
2018-06-16T05:10:46.432Z,6.70
2018-06-16T05:11:46.400Z,6.40
2018-06-16T05:12:46.377Z,6.30
2018-06-16T05:13:46.357Z,7.00
2018-06-16T05:14:46.340Z,6.90
2018-06-16T05:15:46.307Z,6.80
2018-06-16T05:16:46.287Z,6.60
2018-06-16T05:17:46.260Z,6.70
2018-06-16T05:18:46.236Z,6.60
2018-06-16T05:19:46.218Z,6.70
2018-06-16T05:20:46.191Z,6.60
2018-06-16T05:21:46.162Z,6.30
2018-06-16T05:22:46.155Z,6.30
2018-06-16T05:23:46.113Z,6.30
2018-06-16T05:24:46.099Z,6.60
2018-06-16T05:25:46.138Z,6.40
2018-06-16T05:26:46.046Z,6.10
2018-06-16T05:27:46.021Z,6.10
2018-06-16T05:28:46.019Z,6.40
2018-06-16T05:29:45.971Z,6.30
2018-06-16T05:30:45.950Z,5.70
2018-06-16T05:31:45.924Z,5.90
2018-06-16T05:32:45.904Z,6.20
2018-06-16T05:33:45.877Z,6.40
2018-06-16T05:34:45.866Z,6.10
2018-06-16T05:35:45.831Z,6.00
2018-06-16T05:36:45.817Z,6.30
2018-06-16T05:37:45.777Z,6.40
2018-06-16T05:38:45.757Z,6.30
2018-06-16T05:39:45.737Z,6.00
2018-06-16T05:40:45.715Z,6.40
2018-06-16T05:41:45.693Z,6.20
2018-06-16T05:42:45.662Z,6.30
2018-06-16T05:43:45.644Z,6.00
2018-06-16T05:44:45.617Z,5.60
2018-06-16T05:45:45.600Z,5.90
2018-06-16T05:46:45.570Z,6.10
2018-06-16T05:47:45.555Z,6.10
2018-06-16T05:48:45.524Z,6.30
2018-06-16T05:49:45.496Z,6.80
2018-06-16T05:50:45.479Z,6.40
2018-06-16T05:51:45.457Z,6.10
2018-06-16T05:52:45.432Z,6.10
2018-06-16T05:53:45.405Z,6.70
2018-06-16T05:54:45.387Z,6.60
2018-06-16T05:55:45.624Z,6.40
2018-06-16T05:56:45.342Z,6.50
2018-06-16T05:57:45.312Z,6.70
2018-06-16T05:58:45.289Z,6.50
2018-06-16T05:59:45.271Z,6.60
2018-06-16T06:00:45.253Z,6.00
2018-06-16T06:01:45.211Z,6.30
2018-06-16T06:02:45.209Z,6.20
2018-06-16T06:03:45.169Z,6.20
2018-06-16T06:04:45.147Z,6.30
2018-06-16T06:05:45.131Z,6.20
2018-06-16T06:06:45.107Z,6.50
2018-06-16T06:07:45.082Z,6.40
2018-06-16T06:08:45.050Z,5.90
2018-06-16T06:09:45.026Z,6.00
2018-06-16T06:10:45.007Z,6.10
2018-06-16T06:11:45.003Z,5.80
2018-06-16T06:12:44.955Z,6.30
2018-06-16T06:13:44.935Z,5.90
2018-06-16T06:14:44.905Z,5.90
2018-06-16T06:15:44.899Z,6.20
2018-06-16T06:16:44.858Z,6.40
2018-06-16T06:17:44.853Z,5.90
2018-06-16T06:18:44.820Z,6.00
2018-06-16T06:19:44.800Z,6.20
2018-06-16T06:20:44.774Z,6.30
2018-06-16T06:21:44.751Z,6.50
2018-06-16T06:22:44.727Z,5.70
2018-06-16T06:23:44.707Z,6.00
2018-06-16T06:24:44.688Z,5.70
2018-06-16T06:25:44.652Z,6.10
2018-06-16T06:26:44.624Z,5.60
2018-06-16T06:27:44.610Z,5.70
2018-06-16T06:28:44.584Z,5.60
2018-06-16T06:29:44.574Z,5.60
2018-06-16T06:30:44.531Z,5.30
2018-06-16T06:31:44.512Z,5.40
2018-06-16T06:32:44.510Z,5.40
2018-06-16T06:33:44.460Z,5.70
2018-06-16T06:34:44.436Z,5.50
2018-06-16T06:35:44.417Z,5.50
2018-06-16T06:36:44.399Z,5.40
2018-06-16T06:37:44.366Z,5.20
2018-06-16T06:38:44.344Z,5.40
2018-06-16T06:39:44.327Z,5.80
2018-06-16T06:40:44.303Z,5.80
2018-06-16T06:41:44.278Z,5.80
2018-06-16T06:42:44.249Z,5.70
2018-06-16T06:43:44.232Z,5.60
2018-06-16T06:44:44.205Z,6.00
2018-06-16T06:45:44.189Z,5.50
2018-06-16T06:46:44.154Z,5.70
2018-06-16T06:47:44.140Z,5.90
2018-06-16T06:48:44.107Z,5.90
2018-06-16T06:49:44.099Z,5.80
2018-06-16T06:50:44.059Z,5.40
2018-06-16T06:51:44.068Z,5.70
2018-06-16T06:52:44.015Z,5.80
2018-06-16T06:53:43.999Z,5.70
2018-06-16T06:54:43.969Z,6.10
2018-06-16T06:55:43.951Z,6.30
2018-06-16T06:56:43.934Z,6.10
2018-06-16T06:57:43.899Z,6.00
2018-06-16T06:58:43.878Z,5.60
2018-06-16T06:59:43.853Z,6.20
2018-06-16T07:00:43.840Z,6.00
2018-06-16T07:01:43.810Z,5.70
2018-06-16T07:02:43.787Z,6.20
2018-06-16T07:03:43.759Z,5.70
2018-06-16T07:04:43.765Z,6.10
2018-06-16T07:05:43.709Z,6.80
2018-06-16T07:06:43.706Z,6.10
2018-06-16T07:07:43.685Z,6.00
2018-06-16T07:08:43.649Z,5.90
2018-06-16T07:09:43.616Z,6.50
2018-06-16T07:10:43.690Z,6.40
2018-06-16T07:11:43.574Z,5.70
2018-06-16T07:12:43.553Z,6.00
2018-06-16T07:13:43.536Z,6.20
2018-06-16T07:14:43.504Z,6.60
2018-06-16T07:15:43.511Z,6.20
2018-06-16T07:16:43.459Z,5.90
2018-06-16T07:17:43.450Z,6.30
2018-06-16T07:18:43.408Z,6.30
2018-06-16T07:19:43.404Z,5.60
2018-06-16T07:20:43.362Z,5.80
2018-06-16T07:21:43.346Z,5.80
2018-06-16T07:22:43.313Z,6.30
2018-06-16T07:23:43.293Z,5.90
2018-06-16T07:24:43.270Z,5.70
2018-06-16T07:25:43.253Z,5.60
2018-06-16T07:26:43.241Z,5.50
2018-06-16T07:27:43.204Z,5.80
2018-06-16T07:28:43.180Z,6.00
2018-06-16T07:29:43.152Z,5.80
2018-06-16T07:30:43.131Z,5.70
2018-06-16T07:31:43.115Z,5.30
2018-06-16T07:32:43.090Z,6.00
2018-06-16T07:33:43.061Z,5.40
2018-06-16T07:34:43.044Z,6.20
2018-06-16T07:35:43.020Z,5.60
2018-06-16T07:36:43.002Z,5.60
2018-06-16T07:37:42.970Z,5.40
2018-06-16T07:38:42.969Z,5.10
2018-06-16T07:39:42.998Z,5.30
2018-06-16T07:40:43.023Z,5.70
2018-06-16T07:41:42.933Z,5.80
2018-06-16T07:42:42.945Z,6.20
2018-06-16T07:43:42.841Z,6.00
2018-06-16T07:44:42.815Z,5.50
2018-06-16T07:45:42.795Z,5.10
2018-06-16T07:46:42.771Z,5.50
2018-06-16T07:47:42.739Z,5.10
2018-06-16T07:48:42.771Z,4.90
2018-06-16T07:49:42.698Z,5.10
2018-06-16T07:50:42.680Z,4.70
2018-06-16T07:51:42.650Z,5.10
2018-06-16T07:52:42.626Z,4.20
2018-06-16T07:53:42.610Z,4.80
2018-06-16T07:54:42.581Z,4.60
2018-06-16T07:55:42.562Z,4.70
2018-06-16T07:56:42.548Z,5.30
2018-06-16T07:57:42.536Z,4.70
2018-06-16T07:58:42.494Z,4.60
2018-06-16T07:59:42.473Z,4.90
2018-06-16T08:00:42.456Z,4.50
2018-06-16T08:01:42.424Z,4.80
2018-06-16T08:02:42.429Z,4.50
2018-06-16T08:03:42.381Z,4.90
2018-06-16T08:04:42.360Z,4.20
2018-06-16T08:05:42.335Z,4.40
2018-06-16T08:06:42.320Z,5.00
2018-06-16T08:07:42.287Z,4.20
2018-06-16T08:08:42.276Z,4.40
2018-06-16T08:09:42.244Z,4.30
2018-06-16T08:10:42.225Z,3.90
2018-06-16T08:11:42.198Z,4.20
2018-06-16T08:12:42.191Z,4.30
2018-06-16T08:13:42.154Z,4.30
2018-06-16T08:14:42.135Z,4.00
2018-06-16T08:15:42.118Z,4.10
2018-06-16T08:16:42.094Z,4.20
2018-06-16T08:17:42.070Z,4.20
2018-06-16T08:18:42.051Z,4.60
2018-06-16T08:19:42.022Z,3.90
2018-06-16T08:20:42.020Z,4.40
2018-06-16T08:21:41.973Z,4.30
2018-06-16T08:22:41.961Z,4.00
2018-06-16T08:23:41.936Z,4.40
2018-06-16T08:24:41.955Z,4.20
2018-06-16T08:25:41.891Z,4.20
2018-06-16T08:26:41.862Z,4.10
2018-06-16T08:27:41.854Z,4.00
2018-06-16T08:28:41.822Z,3.60
2018-06-16T08:29:41.804Z,3.70
2018-06-16T08:30:41.778Z,4.10
2018-06-16T08:31:41.757Z,4.20
2018-06-16T08:32:41.736Z,4.30
2018-06-16T08:33:41.718Z,4.20
2018-06-16T08:34:41.714Z,4.50
2018-06-16T08:35:41.690Z,4.40
2018-06-16T08:36:41.643Z,4.20
2018-06-16T08:37:41.630Z,3.60
2018-06-16T08:38:41.608Z,3.80
2018-06-16T08:39:41.575Z,4.00
2018-06-16T08:40:41.557Z,3.70
2018-06-16T08:41:41.537Z,4.00
2018-06-16T08:42:41.516Z,4.10
2018-06-16T08:43:41.489Z,3.70
2018-06-16T08:44:41.517Z,4.00
2018-06-16T08:45:41.443Z,4.10
2018-06-16T08:46:41.425Z,4.00
2018-06-16T08:47:41.402Z,4.30
2018-06-16T08:48:41.443Z,3.80
2018-06-16T08:49:41.357Z,4.50
2018-06-16T08:50:41.342Z,3.90
2018-06-16T08:51:41.313Z,4.20
2018-06-16T08:52:41.298Z,3.90
2018-06-16T08:53:41.290Z,4.00
2018-06-16T08:54:41.248Z,4.30
2018-06-16T08:55:41.238Z,4.50
2018-06-16T08:56:41.198Z,4.00
2018-06-16T08:57:41.185Z,3.90
2018-06-16T08:58:41.161Z,4.10
2018-06-16T08:59:41.141Z,3.90
2018-06-16T09:00:41.110Z,4.20
2018-06-16T09:01:41.097Z,4.50
2018-06-16T09:02:41.076Z,4.40
2018-06-16T09:03:41.047Z,4.20
2018-06-16T09:04:41.024Z,4.20
2018-06-16T09:05:41.010Z,4.00
2018-06-16T09:06:40.984Z,4.10
2018-06-16T09:07:41.362Z,4.20
2018-06-16T09:08:40.939Z,4.20
2018-06-16T09:09:40.915Z,4.20
2018-06-16T09:10:40.897Z,4.40
2018-06-16T09:11:40.871Z,3.90
2018-06-16T09:12:40.858Z,4.20
2018-06-16T09:13:40.823Z,4.30
2018-06-16T09:14:40.809Z,4.10
2018-06-16T09:15:40.786Z,4.20
2018-06-16T09:16:40.773Z,3.70
2018-06-16T09:17:40.734Z,3.80
2018-06-16T09:18:40.727Z,3.90
2018-06-16T09:19:40.696Z,3.70
2018-06-16T09:20:40.674Z,3.80
2018-06-16T09:21:40.647Z,3.40
2018-06-16T09:22:40.684Z,3.70
2018-06-16T09:23:40.599Z,3.70
2018-06-16T09:24:40.611Z,3.80
2018-06-16T09:25:40.557Z,4.30
2018-06-16T09:26:40.539Z,4.20
2018-06-16T09:27:40.529Z,3.70
2018-06-16T09:28:40.494Z,4.20
2018-06-16T09:29:40.469Z,4.00
2018-06-16T09:30:40.450Z,4.00
2018-06-16T09:31:40.429Z,4.00
2018-06-16T09:32:40.408Z,3.50
2018-06-16T09:33:40.383Z,3.80
2018-06-16T09:34:40.365Z,3.70
2018-06-16T09:35:40.335Z,3.40
2018-06-16T09:36:40.341Z,3.40
2018-06-16T09:37:40.294Z,3.30
2018-06-16T09:38:40.277Z,3.60
2018-06-16T09:39:40.250Z,3.60
2018-06-16T09:40:40.227Z,3.10
2018-06-16T09:41:40.211Z,3.70
2018-06-16T09:42:40.192Z,3.80
2018-06-16T09:43:40.164Z,3.40
2018-06-16T09:44:40.138Z,3.50
2018-06-16T09:45:40.119Z,3.50
2018-06-16T09:46:40.121Z,3.80
2018-06-16T09:47:40.068Z,3.50
2018-06-16T09:48:40.050Z,3.80
2018-06-16T09:49:40.045Z,3.40
2018-06-16T09:50:40.011Z,3.70
2018-06-16T09:51:39.987Z,4.50
2018-06-16T09:52:39.962Z,4.00
2018-06-16T09:53:39.947Z,3.30
2018-06-16T09:54:39.919Z,3.50
2018-06-16T09:55:39.897Z,2.80
2018-06-16T09:56:39.870Z,3.00
2018-06-16T09:57:39.853Z,3.20
2018-06-16T09:58:39.833Z,3.10
2018-06-16T09:59:39.813Z,3.50
2018-06-16T10:00:39.794Z,3.10
2018-06-16T10:01:39.764Z,3.50
2018-06-16T10:02:39.745Z,3.00
2018-06-16T10:03:39.725Z,2.60
2018-06-16T10:04:39.699Z,2.60
2018-06-16T10:05:39.681Z,3.00
2018-06-16T10:06:39.655Z,2.80
2018-06-16T10:07:39.644Z,3.30
2018-06-16T10:08:39.617Z,2.80
2018-06-16T10:09:39.600Z,3.10
2018-06-16T10:10:39.570Z,3.30
2018-06-16T10:11:39.546Z,2.80
2018-06-16T10:12:39.533Z,3.00
2018-06-16T10:13:39.503Z,3.40
2018-06-16T10:14:39.479Z,3.00
2018-06-16T10:15:39.468Z,3.60
2018-06-16T10:16:39.443Z,3.30
2018-06-16T10:17:39.423Z,2.90
2018-06-16T10:18:39.394Z,2.90
2018-06-16T10:19:39.378Z,2.90
2018-06-16T10:20:39.354Z,3.10
2018-06-16T10:21:39.331Z,3.10
2018-06-16T10:22:39.308Z,2.80
2018-06-16T10:23:39.291Z,2.90
2018-06-16T10:24:39.272Z,3.00
2018-06-16T10:25:39.240Z,2.70
2018-06-16T10:26:39.224Z,3.00
2018-06-16T10:27:39.199Z,4.20
2018-06-16T10:28:39.175Z,3.20
2018-06-16T10:29:39.156Z,3.00
2018-06-16T10:30:39.143Z,2.80
2018-06-16T10:31:39.113Z,3.00
2018-06-16T10:32:39.097Z,2.90
2018-06-16T10:33:39.072Z,2.90
2018-06-16T10:34:39.051Z,2.50
2018-06-16T10:35:39.031Z,2.70
2018-06-16T10:36:39.026Z,2.30
2018-06-16T10:37:38.990Z,2.30
2018-06-16T10:38:38.958Z,2.70
2018-06-16T10:39:38.968Z,2.20
2018-06-16T10:40:38.915Z,2.90
2018-06-16T10:41:38.902Z,2.40
2018-06-16T10:42:38.876Z,2.60
2018-06-16T10:43:38.858Z,2.50
2018-06-16T10:44:38.839Z,2.40
2018-06-16T10:45:38.818Z,2.50
2018-06-16T10:46:38.797Z,2.60
2018-06-16T10:47:38.775Z,2.70
2018-06-16T10:48:38.747Z,2.90
2018-06-16T10:49:38.733Z,2.40
2018-06-16T10:50:38.709Z,2.40
2018-06-16T10:51:38.684Z,2.80
2018-06-16T10:52:38.674Z,2.70
2018-06-16T10:53:38.647Z,2.90
2018-06-16T10:54:38.630Z,2.90
2018-06-16T10:55:38.597Z,3.00
2018-06-16T10:56:38.586Z,2.80
2018-06-16T10:57:38.555Z,3.10
2018-06-16T10:58:38.547Z,2.70
2018-06-16T10:59:38.521Z,2.70
2018-06-16T11:00:38.497Z,2.80
2018-06-16T11:01:38.479Z,3.00
2018-06-16T11:02:38.461Z,3.30
2018-06-16T11:03:38.429Z,2.80
2018-06-16T11:04:38.418Z,2.50
2018-06-16T11:05:38.398Z,2.60
2018-06-16T11:06:38.367Z,2.90
2018-06-16T11:07:38.355Z,2.70
2018-06-16T11:08:38.328Z,2.60
2018-06-16T11:09:38.307Z,2.60
2018-06-16T11:10:38.283Z,2.80
2018-06-16T11:11:38.270Z,2.80
2018-06-16T11:12:38.243Z,2.70
2018-06-16T11:13:38.226Z,2.80
2018-06-16T11:14:38.206Z,2.80
2018-06-16T11:15:38.185Z,2.50
2018-06-16T11:16:38.163Z,2.80
2018-06-16T11:17:38.140Z,3.60
2018-06-16T11:18:38.120Z,3.00
2018-06-16T11:19:38.097Z,3.00
2018-06-16T11:20:38.080Z,2.90
2018-06-16T11:21:38.060Z,2.60
2018-06-16T11:22:38.032Z,2.50
2018-06-16T11:23:38.026Z,2.70
2018-06-16T11:24:38.002Z,2.80
2018-06-16T11:25:37.970Z,2.90
2018-06-16T11:26:37.966Z,2.40
2018-06-16T11:27:37.934Z,2.60
2018-06-16T11:28:37.916Z,2.40
2018-06-16T11:29:37.889Z,2.90
2018-06-16T11:30:37.863Z,2.70
2018-06-16T11:31:37.851Z,2.70
2018-06-16T11:32:37.830Z,2.60
2018-06-16T11:33:37.815Z,2.90
2018-06-16T11:34:37.788Z,2.50
2018-06-16T11:35:37.766Z,2.60
2018-06-16T11:36:37.742Z,2.70
2018-06-16T11:37:37.724Z,2.70
2018-06-16T11:38:37.700Z,2.90
2018-06-16T11:39:37.685Z,3.00
2018-06-16T11:40:37.658Z,2.70
2018-06-16T11:41:37.638Z,3.00
2018-06-16T11:42:37.622Z,3.20
2018-06-16T11:43:37.599Z,2.70
2018-06-16T11:44:37.573Z,2.80
2018-06-16T11:45:37.568Z,3.10
2018-06-16T11:46:37.531Z,3.10
2018-06-16T11:47:37.514Z,3.90
2018-06-16T11:48:37.507Z,3.30
2018-06-16T11:49:37.466Z,3.70
2018-06-16T11:50:37.451Z,3.10
2018-06-16T11:51:37.432Z,3.00
2018-06-16T11:52:37.411Z,3.00
2018-06-16T11:53:37.384Z,3.00
2018-06-16T11:54:37.366Z,3.00
2018-06-16T11:55:37.349Z,3.50
2018-06-16T11:56:37.325Z,2.90
2018-06-16T11:57:37.338Z,3.20
2018-06-16T11:58:37.285Z,3.00
2018-06-16T11:59:37.255Z,3.20
2018-06-16T12:00:37.249Z,4.30
2018-06-16T12:01:37.216Z,3.10
2018-06-16T12:02:37.199Z,2.90
2018-06-16T12:03:37.182Z,2.80
2018-06-16T12:04:37.156Z,3.10
2018-06-16T12:05:37.134Z,3.00
2018-06-16T12:06:37.119Z,3.00
2018-06-16T12:07:37.142Z,3.40
2018-06-16T12:08:37.074Z,2.70
2018-06-16T12:09:37.050Z,3.10
2018-06-16T12:10:37.039Z,2.80
2018-06-16T12:11:37.005Z,2.90
2018-06-16T12:12:36.992Z,2.70
2018-06-16T12:13:36.977Z,2.80
2018-06-16T12:14:36.945Z,3.00
2018-06-16T12:15:36.922Z,2.70
2018-06-16T12:16:36.903Z,2.70
2018-06-16T12:17:36.884Z,2.80
2018-06-16T12:18:36.864Z,3.00
2018-06-16T12:19:36.834Z,2.70
2018-06-16T12:20:36.814Z,2.90
2018-06-16T12:21:36.802Z,3.20
2018-06-16T12:22:36.774Z,3.00
2018-06-16T12:23:36.754Z,3.30
2018-06-16T12:24:36.728Z,3.10
2018-06-16T12:25:36.713Z,2.90
2018-06-16T12:26:36.690Z,3.10
2018-06-16T12:27:36.667Z,2.80
2018-06-16T12:28:36.642Z,2.70
2018-06-16T12:29:36.695Z,2.50
2018-06-16T12:30:36.608Z,2.70
2018-06-16T12:31:36.580Z,2.50
2018-06-16T12:32:36.561Z,2.40
2018-06-16T12:33:36.545Z,2.40
2018-06-16T12:34:36.519Z,2.20
2018-06-16T12:35:36.506Z,2.50
2018-06-16T12:36:36.478Z,2.70
2018-06-16T12:37:36.455Z,2.50
2018-06-16T12:38:36.439Z,2.60
2018-06-16T12:39:36.424Z,2.90
2018-06-16T12:40:36.394Z,3.40
2018-06-16T12:41:36.382Z,3.30
2018-06-16T12:42:36.379Z,2.60
2018-06-16T12:43:36.327Z,2.90
2018-06-16T12:44:36.319Z,2.50
2018-06-16T12:45:36.293Z,3.40
2018-06-16T12:46:36.271Z,2.60
2018-06-16T12:47:36.247Z,2.70
2018-06-16T12:48:36.226Z,3.30
2018-06-16T12:49:36.210Z,3.20
2018-06-16T12:50:36.188Z,2.70
2018-06-16T12:51:36.169Z,3.20
2018-06-16T12:52:36.148Z,3.90
2018-06-16T12:53:36.124Z,3.00
2018-06-16T12:54:36.102Z,2.90
2018-06-16T12:55:36.082Z,5.40
2018-06-16T12:56:36.104Z,3.20
2018-06-16T12:57:36.053Z,3.00
2018-06-16T12:58:36.018Z,4.20
2018-06-16T12:59:35.997Z,3.10
2018-06-16T13:00:35.990Z,4.20
2018-06-16T13:01:35.953Z,5.00
2018-06-16T13:02:35.937Z,4.60
2018-06-16T13:03:35.906Z,5.30
2018-06-16T13:04:35.894Z,4.60
2018-06-16T13:05:35.864Z,4.20
2018-06-16T13:06:39.647Z,4.00
2018-06-16T13:07:35.832Z,4.20
2018-06-16T13:08:35.798Z,4.60
2018-06-16T13:09:35.784Z,4.20
2018-06-16T13:10:35.756Z,4.30
2018-06-16T13:11:35.749Z,4.40
2018-06-16T13:12:35.715Z,4.70
2018-06-16T13:13:35.691Z,4.50
2018-06-16T13:14:35.674Z,4.60
2018-06-16T13:15:35.643Z,4.50
2018-06-16T13:16:35.637Z,4.60
2018-06-16T13:17:35.601Z,4.20
2018-06-16T13:18:35.581Z,4.60